Time;durP1;ratioP1;P1;durP2;ratioP2;P2;SDS_P1;SDS_P2;PMS_P1;PMS_P2;Temp;Humidity;BMP_temperature;BMP_pressure;BME280_temperature;BME280_humidity;BME280_pressure;Samples;Min_cycle;Max_cycle;Signal;HPM_P1;HPM_P2
2020/12/14 06:05:36;;;;;;;1999.90;999.90;;;5.10;99.90;;;;;;5059886;28;20572;-46
2020/12/14 06:08:16;;;;;;;1999.90;999.90;;;5.00;99.90;;;;;;5062478;28;20998;-48
2020/12/14 06:10:49;;;;;;;1999.90;999.90;;;5.20;99.90;;;;;;5063326;28;20528;-48
2020/12/14 06:13:23;;;;;;;1999.90;999.90;;;5.20;99.90;;;;;;5066612;28;20412;-48
2020/12/14 06:16:00;;;;;;;1999.90;999.90;;;5.20;99.90;;;;;;5052602;28;20816;-48
2020/12/14 06:18:31;;;;;;;1999.90;999.90;;;5.20;99.90;;;;;;5060755;28;20839;-47
2020/12/14 06:20:57;;;;;;;1999.90;999.90;;;5.20;99.90;;;;;;5052829;28;21067;-48
2020/12/14 06:23:24;;;;;;;1999.90;999.90;;;5.20;99.90;;;;;;5044800;28;20432;-50
2020/12/14 06:25:50;;;;;;;1999.90;999.90;;;5.20;99.90;;;;;;5052386;28;20260;-48
2020/12/14 06:28:33;;;;;;;1999.90;999.90;;;5.20;99.90;;;;;;5058472;28;20444;-48
2020/12/14 06:30:58;;;;;;;1999.90;999.90;;;5.20;99.90;;;;;;5049458;28;20510;-49
2020/12/14 06:33:34;;;;;;;1999.90;999.90;;;5.20;99.90;;;;;;5058597;28;20444;-48
2020/12/14 06:36:25;;;;;;;1999.90;999.90;;;5.20;99.90;;;;;;5045778;28;20189;-47
2020/12/14 06:38:52;;;;;;;1999.90;999.90;;;5.30;99.90;;;;;;5057705;28;20488;-48
2020/12/14 06:41:22;;;;;;;1999.90;999.90;;;5.30;99.90;;;;;;5053250;28;20451;-48
2020/12/14 06:44:02;;;;;;;1999.90;999.90;;;5.20;99.90;;;;;;5065929;28;20967;-50
2020/12/14 06:46:29;;;;;;;1999.90;999.90;;;5.30;99.90;;;;;;5055596;28;20987;-47
2020/12/14 06:48:54;;;;;;;1999.90;999.90;;;5.20;99.90;;;;;;5057992;28;20842;-46
2020/12/14 06:51:21;;;;;;;1999.90;999.90;;;5.20;99.90;;;;;;5057225;28;20522;-48
2020/12/14 06:53:48;;;;;;;1999.90;999.90;;;5.20;99.90;;;;;;5064711;28;20264;-46
2020/12/14 06:56:26;;;;;;;1999.90;999.90;;;5.20;99.90;;;;;;5054735;28;20527;-47
2020/12/14 06:58:52;;;;;;;1999.90;999.90;;;5.30;99.90;;;;;;5045359;28;20523;-48
2020/12/14 07:01:37;;;;;;;1999.90;999.90;;;5.20;99.90;;;;;;5045328;28;20535;-46
2020/12/14 07:04:05;;;;;;;1999.90;999.90;;;5.20;99.90;;;;;;5045677;28;20747;-46
2020/12/14 07:06:32;;;;;;;1999.90;999.90;;;5.20;99.90;;;;;;5045516;28;21012;-49
2020/12/14 07:08:58;;;;;;;1999.90;999.90;;;5.20;99.90;;;;;;5056661;28;20452;-50
2020/12/14 07:11:25;;;;;;;1999.90;999.90;;;5.20;99.90;;;;;;5065061;28;20956;-47
2020/12/14 07:13:52;;;;;;;1999.90;999.90;;;5.20;99.90;;;;;;5056468;28;20191;-46
2020/12/14 07:16:19;;;;;;;1999.90;999.90;;;5.20;99.90;;;;;;5035884;28;20406;-48
2020/12/14 07:18:47;;;;;;;1999.90;999.90;;;5.10;99.90;;;;;;5032242;28;20937;-46
2020/12/14 07:21:15;;;;;;;1999.90;999.90;;;5.10;99.90;;;;;;5031818;28;20445;-46
2020/12/14 07:23:43;;;;;;;1999.90;999.90;;;5.20;99.90;;;;;;5032331;28;20457;-47
2020/12/14 07:26:10;;;;;;;1999.90;999.90;;;5.10;99.90;;;;;;5039247;28;20427;-47
2020/12/14 07:28:43;;;;;;;1999.90;999.90;;;5.10;99.90;;;;;;5048343;28;20426;-47
2020/12/14 07:31:15;;;;;;;1999.90;999.90;;;5.10;99.90;;;;;;5045530;28;20871;-46
2020/12/14 07:33:52;;;;;;;1999.90;999.90;;;5.10;99.90;;;;;;5051561;28;20777;-46
2020/12/14 07:36:18;;;;;;;1999.90;999.90;;;5.10;99.90;;;;;;5051608;28;20404;-48
2020/12/14 07:38:52;;;;;;;1999.90;999.90;;;5.10;99.90;;;;;;5051562;28;20491;-48
2020/12/14 07:41:18;;;;;;;1999.90;999.90;;;5.20;99.90;;;;;;5051330;28;20202;-46
2020/12/14 07:43:54;;;;;;;1999.90;999.90;;;5.20;99.90;;;;;;5051499;28;21038;-49
2020/12/14 07:46:25;;;;;;;1999.90;999.90;;;5.20;99.90;;;;;;5046965;28;20486;-46
2020/12/14 07:48:52;;;;;;;1999.90;999.90;;;5.20;99.90;;;;;;5049344;28;20417;-49
2020/12/14 07:51:19;;;;;;;1999.90;999.90;;;5.20;99.90;;;;;;5046074;28;20501;-48
2020/12/14 07:53:45;;;;;;;1999.90;999.90;;;5.20;99.90;;;;;;5052973;28;20424;-49
2020/12/14 07:56:11;;;;;;;1999.90;999.90;;;5.20;99.90;;;;;;5052074;28;20423;-46
2020/12/14 07:58:47;;;;;;;1999.90;999.90;;;5.30;99.90;;;;;;5051437;28;20412;-48
2020/12/14 08:01:17;;;;;;;1999.90;999.90;;;5.40;99.90;;;;;;5050687;28;20205;-48
2020/12/14 08:03:46;;;;;;;1999.90;999.90;;;5.30;99.90;;;;;;5050454;28;20464;-48
2020/12/14 08:06:16;;;;;;;1999.90;999.90;;;5.30;99.90;;;;;;5051042;28;20412;-46
2020/12/14 08:08:47;;;;;;;1999.90;999.90;;;5.50;99.90;;;;;;5051087;28;20465;-50
2020/12/14 08:11:13;;;;;;;1999.90;999.90;;;5.40;99.90;;;;;;5050821;28;20431;-47
2020/12/14 08:13:41;;;;;;;1999.90;999.90;;;5.50;99.90;;;;;;5050915;28;20419;-48
2020/12/14 08:16:07;;;;;;;1999.90;999.90;;;5.50;99.90;;;;;;5046274;28;21045;-48
2020/12/14 08:18:34;;;;;;;1999.90;999.90;;;5.50;99.90;;;;;;5043050;28;20425;-47
2020/12/14 08:21:00;;;;;;;1999.90;999.90;;;5.50;99.90;;;;;;5046213;28;20425;-47
2020/12/14 08:23:30;;;;;;;1999.90;999.90;;;5.40;99.90;;;;;;5046697;28;20459;-48
2020/12/14 08:25:56;;;;;;;1999.90;999.90;;;5.50;99.90;;;;;;5041739;28;20809;-47
2020/12/14 08:28:29;;;;;;;1999.90;999.90;;;5.50;99.90;;;;;;5039192;28;20426;-50
2020/12/14 08:30:54;;;;;;;1999.90;999.90;;;5.50;99.90;;;;;;5043197;28;21208;-49
2020/12/14 08:33:20;;;;;;;1999.90;999.90;;;5.60;99.90;;;;;;5039972;28;20421;-50
2020/12/14 08:35:53;;;;;;;1999.90;999.90;;;5.50;99.90;;;;;;5041458;28;20611;-47
2020/12/14 08:38:24;;;;;;;1999.90;999.90;;;5.60;99.90;;;;;;5040456;28;20183;-46
2020/12/14 08:40:54;;;;;;;1999.90;999.90;;;5.50;99.90;;;;;;5037248;28;21003;-48
2020/12/14 08:43:22;;;;;;;1999.90;999.90;;;5.50;99.90;;;;;;5039676;28;20424;-47
2020/12/14 08:46:05;;;;;;;1999.90;999.90;;;5.60;99.90;;;;;;5042587;28;20404;-47
2020/12/14 08:48:43;;;;;;;1999.90;999.90;;;5.60;99.90;;;;;;5038655;28;21042;-49
2020/12/14 08:51:12;;;;;;;1999.90;999.90;;;5.60;99.90;;;;;;5035550;28;20992;-48
2020/12/14 08:53:40;;;;;;;1999.90;999.90;;;5.60;99.90;;;;;;5040812;28;20487;-48
2020/12/14 08:56:08;;;;;;;1999.90;999.90;;;5.60;99.90;;;;;;5039811;28;20424;-49
2020/12/14 08:58:52;;;;;;;1999.90;999.90;;;5.70;99.90;;;;;;5040936;28;20425;-50
2020/12/14 09:01:23;;;;;;;1999.90;999.90;;;5.70;99.90;;;;;;5035165;28;20451;-49
2020/12/14 09:03:50;;;;;;;1999.90;999.90;;;5.80;99.90;;;;;;5041655;28;21020;-48
2020/12/14 09:06:20;;;;;;;1999.90;999.90;;;5.70;99.90;;;;;;5041176;28;20420;-49
2020/12/14 09:09:04;;;;;;;1999.90;999.90;;;5.60;99.90;;;;;;5038205;28;20417;-49
2020/12/14 09:11:32;;;;;;;1999.90;999.90;;;5.70;99.90;;;;;;5038139;28;20436;-47
2020/12/14 09:14:02;;;;;;;1999.90;999.90;;;5.80;99.90;;;;;;5037929;28;20412;-47
2020/12/14 09:16:28;;;;;;;1999.90;999.90;;;5.70;99.90;;;;;;5038686;28;20508;-51
2020/12/14 09:18:54;;;;;;;1999.90;999.90;;;5.80;99.90;;;;;;5037620;28;20566;-46
2020/12/14 09:21:20;;;;;;;1999.90;999.90;;;5.90;99.90;;;;;;5041755;28;20272;-46
2020/12/14 09:24:11;;;;;;;1999.90;999.90;;;5.90;99.90;;;;;;5039303;28;20467;-46
2020/12/14 09:26:38;;;;;;;1999.90;999.90;;;5.90;99.90;;;;;;5042646;28;20414;-47
2020/12/14 09:29:03;;;;;;;1999.90;999.90;;;5.90;99.90;;;;;;5040087;28;20428;-47
2020/12/14 09:31:29;;;;;;;1999.90;999.90;;;5.90;99.90;;;;;;5039058;28;20449;-49
2020/12/14 09:33:54;;;;;;;1999.90;999.90;;;6.00;99.90;;;;;;5038097;28;20185;-49
2020/12/14 09:36:20;;;;;;;1999.90;999.90;;;6.00;99.90;;;;;;5039223;28;20210;-49
2020/12/14 09:38:46;;;;;;;1999.90;999.90;;;6.00;99.90;;;;;;5037565;28;20178;-48
2020/12/14 09:41:12;;;;;;;1999.90;999.90;;;6.10;99.90;;;;;;5035940;28;20248;-48
2020/12/14 09:43:38;;;;;;;1999.90;999.90;;;6.20;99.90;;;;;;5032822;28;20473;-48
2020/12/14 09:46:03;;;;;;;1999.90;999.90;;;6.20;99.90;;;;;;5036008;28;20193;-49
2020/12/14 09:48:29;;;;;;;1999.90;999.90;;;6.20;99.90;;;;;;5038862;28;20198;-47
2020/12/14 09:50:54;;;;;;;1999.90;999.90;;;6.20;99.90;;;;;;5040014;28;20189;-48
2020/12/14 09:53:20;;;;;;;1999.90;999.90;;;6.20;99.90;;;;;;5043247;28;20521;-51
2020/12/14 09:55:46;;;;;;;1999.90;999.90;;;6.30;99.90;;;;;;5048654;28;20193;-50
2020/12/14 09:58:11;;;;;;;1999.90;999.90;;;6.20;99.90;;;;;;5040950;28;20256;-48
2020/12/14 10:00:37;;;;;;;1999.90;999.90;;;6.30;99.90;;;;;;5049077;28;20650;-47
2020/12/14 10:03:04;;;;;;;1999.90;999.90;;;6.30;99.90;;;;;;5035348;28;20233;-48
2020/12/14 10:05:29;;;;;;;1999.90;999.90;;;6.20;99.90;;;;;;5029111;28;20214;-48
2020/12/14 10:07:55;;;;;;;1999.90;999.90;;;6.10;99.90;;;;;;5031002;28;20704;-49
2020/12/14 10:10:20;;;;;;;1999.90;999.90;;;6.20;99.90;;;;;;5048736;28;20176;-48
2020/12/14 10:12:46;;;;;;;1999.90;999.90;;;6.40;99.90;;;;;;5038576;28;20293;-47
2020/12/14 10:15:12;;;;;;;1999.90;999.90;;;6.40;99.90;;;;;;5028740;28;20199;-48
2020/12/14 10:17:38;;;;;;;1999.90;999.90;;;6.40;99.90;;;;;;5030535;28;20198;-48
2020/12/14 10:20:05;;;;;;;1999.90;999.90;;;6.30;99.90;;;;;;5031328;28;20260;-48
2020/12/14 10:22:31;;;;;;;1999.90;999.90;;;6.30;99.90;;;;;;5039005;28;20462;-50
2020/12/14 10:24:57;;;;;;;1999.90;999.90;;;6.40;99.90;;;;;;5030802;28;20470;-49
2020/12/14 10:27:23;;;;;;;1999.90;999.90;;;6.40;99.90;;;;;;5046505;28;20451;-50
2020/12/14 10:29:49;;;;;;;1999.90;999.90;;;6.30;99.90;;;;;;5043346;28;20191;-48
2020/12/14 10:32:14;;;;;;;1999.90;999.90;;;6.30;99.90;;;;;;5034507;28;20256;-48
2020/12/14 10:34:40;;;;;;;1999.90;999.90;;;6.50;99.90;;;;;;5048274;28;20210;-48
2020/12/14 10:37:06;;;;;;;1999.90;999.90;;;6.50;99.90;;;;;;5044642;28;21032;-48
2020/12/14 10:39:31;;;;;;;1999.90;999.90;;;6.40;99.90;;;;;;5028023;28;20195;-50
2020/12/14 15:19:36;;;;;;;1999.90;999.90;;;3.20;99.90;;;;;;5068671;28;20557;-48
2020/12/14 15:22:02;;;;;;;1999.90;999.90;;;3.10;99.90;;;;;;5062950;28;20438;-48
2020/12/14 15:24:28;;;;;;;1999.90;999.90;;;3.10;99.90;;;;;;5059005;28;20604;-49
2020/12/14 15:26:54;;;;;;;1999.90;999.90;;;3.10;99.90;;;;;;5057668;28;20427;-49
2020/12/14 15:29:19;;;;;;;1999.90;999.90;;;3.20;99.90;;;;;;5058441;28;20176;-49
2020/12/14 15:31:45;;;;;;;1999.90;999.90;;;3.20;99.90;;;;;;5059454;28;20468;-48
2020/12/14 15:34:10;;;;;;;1999.90;999.90;;;3.20;99.90;;;;;;5055390;28;20177;-48
2020/12/14 15:36:36;;;;;;;1999.90;999.90;;;3.30;99.90;;;;;;5059844;28;20185;-48
2020/12/14 15:39:02;;;;;;;1999.90;999.90;;;3.30;99.90;;;;;;5062603;28;20216;-48
2020/12/14 15:41:28;;;;;;;1999.90;999.90;;;3.30;99.90;;;;;;5062090;28;20227;-48
2020/12/14 15:43:53;;;;;;;1999.90;999.90;;;3.30;99.90;;;;;;5056636;28;20499;-49
2020/12/14 15:46:19;;;;;;;1999.90;999.90;;;3.30;99.90;;;;;;5058637;28;20199;-48
2020/12/14 15:48:46;;;;;;;1999.90;999.90;;;3.30;99.90;;;;;;5055597;28;20662;-48
2020/12/14 15:51:13;;;;;;;1999.90;999.90;;;3.30;99.90;;;;;;5057329;28;20446;-48
2020/12/14 15:53:40;;;;;;;1999.90;999.90;;;3.30;99.90;;;;;;5063223;28;20809;-48
2020/12/14 15:56:06;;;;;;;1999.90;999.90;;;3.30;99.90;;;;;;5065052;28;20935;-48
2020/12/14 15:58:32;;;;;;;1999.90;999.90;;;3.30;99.90;;;;;;5055396;28;20521;-49
2020/12/14 16:00:59;;;;;;;1999.90;999.90;;;3.30;99.90;;;;;;5051995;28;20856;-48
2020/12/14 16:03:24;;;;;;;1999.90;999.90;;;3.30;99.90;;;;;;5059981;28;20185;-48
2020/12/14 16:05:50;;;;;;;1999.90;999.90;;;3.20;99.90;;;;;;5057457;28;21330;-48
2020/12/14 16:08:16;;;;;;;1999.90;999.90;;;3.20;99.90;;;;;;5056945;28;20253;-48
2020/12/14 16:10:41;;;;;;;1999.90;999.90;;;3.20;99.90;;;;;;5054345;28;20266;-49
2020/12/14 16:13:07;;;;;;;1999.90;999.90;;;3.20;99.90;;;;;;5056749;28;20198;-48
2020/12/14 16:15:33;;;;;;;1999.90;999.90;;;3.10;99.90;;;;;;5056761;28;20998;-48
2020/12/14 16:17:59;;;;;;;1999.90;999.90;;;3.20;99.90;;;;;;5056372;28;20213;-48
2020/12/14 16:20:26;;;;;;;1999.90;999.90;;;3.20;99.90;;;;;;5055386;28;20415;-48
2020/12/14 16:22:51;;;;;;;1999.90;999.90;;;3.20;99.90;;;;;;5059854;28;20432;-48
2020/12/14 16:25:17;;;;;;;1999.90;999.90;;;3.20;99.90;;;;;;5055246;28;20412;-48
2020/12/14 16:27:44;;;;;;;1999.90;999.90;;;3.20;99.90;;;;;;5055959;28;20200;-49
2020/12/14 16:30:12;;;;;;;1999.90;999.90;;;3.20;99.90;;;;;;5048515;28;20550;-48
2020/12/14 16:32:38;;;;;;;1999.90;999.90;;;3.10;99.90;;;;;;5041424;28;20441;-48
2020/12/14 16:35:07;;;;;;;1999.90;999.90;;;3.10;99.90;;;;;;5042631;28;20452;-48
2020/12/14 16:37:33;;;;;;;1999.90;999.90;;;3.10;99.90;;;;;;5043550;28;20455;-48
2020/12/14 16:39:59;;;;;;;1999.90;999.90;;;3.10;99.90;;;;;;5043367;28;20420;-48
2020/12/14 16:42:25;;;;;;;1999.90;999.90;;;3.10;99.90;;;;;;5039605;28;20448;-48
2020/12/14 16:44:51;;;;;;;1999.90;999.90;;;3.10;99.90;;;;;;5045884;28;20181;-48
2020/12/14 16:47:20;;;;;;;1999.90;999.90;;;3.00;99.90;;;;;;5039062;28;20772;-48
2020/12/14 16:49:47;;;;;;;1999.90;999.90;;;3.00;99.90;;;;;;5046350;28;20411;-48
2020/12/14 16:52:13;;;;;;;1999.90;999.90;;;3.00;99.90;;;;;;5040556;28;21134;-48
2020/12/14 16:54:39;;;;;;;1999.90;999.90;;;3.00;99.90;;;;;;5042276;28;20527;-48
2020/12/14 16:57:05;;;;;;;1999.90;999.90;;;3.00;99.90;;;;;;5041849;28;20523;-48
2020/12/14 16:59:30;;;;;;;1999.90;999.90;;;3.00;99.90;;;;;;5046414;28;20201;-48
2020/12/14 17:01:56;;;;;;;1999.90;999.90;;;2.90;99.90;;;;;;5042513;28;20182;-48
2020/12/14 17:07:09;;;;;;;1999.90;999.90;;;2.90;99.90;;;;;;5042671;28;20412;-48
2020/12/14 17:09:35;;;;;;;1999.90;999.90;;;2.90;99.90;;;;;;5040176;28;20422;-49
2020/12/14 17:12:04;;;;;;;1999.90;999.90;;;2.90;99.90;;;;;;5040212;28;20820;-49
2020/12/14 17:14:30;;;;;;;1999.90;999.90;;;3.00;99.90;;;;;;5042676;28;20205;-50
2020/12/14 17:16:55;;;;;;;1999.90;999.90;;;3.00;99.90;;;;;;5042918;28;20948;-50
2020/12/14 17:19:21;;;;;;;1999.90;999.90;;;3.00;99.90;;;;;;5044335;28;20199;-49
2020/12/14 17:21:47;;;;;;;1999.90;999.90;;;3.00;99.90;;;;;;5036509;28;20635;-49
2020/12/14 17:24:12;;;;;;;1999.90;999.90;;;2.90;99.90;;;;;;5042855;28;20185;-50
2020/12/14 17:26:38;;;;;;;1999.90;999.90;;;2.90;99.90;;;;;;5046173;28;20423;-49
2020/12/14 17:29:04;;;;;;;1999.90;999.90;;;2.90;99.90;;;;;;5047765;28;20216;-48
2020/12/14 17:31:29;;;;;;;1999.90;999.90;;;2.90;99.90;;;;;;5048599;28;20670;-51
2020/12/14 17:33:59;;;;;;;1999.90;999.90;;;2.90;99.90;;;;;;5049016;28;20200;-49
2020/12/14 17:36:24;;;;;;;1999.90;999.90;;;2.90;99.90;;;;;;5048814;28;20186;-50
2020/12/14 17:38:50;;;;;;;1999.90;999.90;;;2.90;99.90;;;;;;5048445;28;20521;-50
2020/12/14 17:41:16;;;;;;;1999.90;999.90;;;2.90;99.90;;;;;;5047284;28;20248;-50
2020/12/14 17:43:42;;;;;;;1999.90;999.90;;;2.80;99.90;;;;;;5048544;28;20585;-49
2020/12/14 17:46:07;;;;;;;1999.90;999.90;;;2.90;99.90;;;;;;5029739;28;20890;-50
2020/12/14 17:48:34;;;;;;;1999.90;999.90;;;2.90;99.90;;;;;;5034429;28;20270;-49
2020/12/14 17:51:03;;;;;;;1999.90;999.90;;;2.90;99.90;;;;;;5039519;28;20185;-50
2020/12/14 17:53:29;;;;;;;1999.90;999.90;;;2.90;99.90;;;;;;5039925;28;20462;-50
2020/12/14 17:55:54;;;;;;;1999.90;999.90;;;3.00;99.90;;;;;;5039465;28;20420;-49
2020/12/14 17:58:20;;;;;;;1999.90;999.90;;;3.00;99.90;;;;;;5037870;28;20202;-49
2020/12/14 18:00:46;;;;;;;1999.90;999.90;;;3.00;99.90;;;;;;5037601;28;20184;-49
2020/12/14 18:03:11;;;;;;;1999.90;999.90;;;3.10;99.90;;;;;;5036116;28;20185;-49
2020/12/14 18:05:39;;;;;;;1999.90;999.90;;;3.00;99.90;;;;;;5038811;28;20668;-49
2020/12/14 18:08:05;;;;;;;1999.90;999.90;;;3.10;99.90;;;;;;5038493;28;20188;-50
2020/12/14 18:10:31;;;;;;;1999.90;999.90;;;3.10;99.90;;;;;;5037194;28;20425;-49
2020/12/14 18:12:56;;;;;;;1999.90;999.90;;;3.10;99.90;;;;;;5038692;28;20431;-49
2020/12/14 18:15:22;;;;;;;1999.90;999.90;;;3.10;99.90;;;;;;5035514;28;20195;-49
2020/12/14 18:17:51;;;;;;;1999.90;999.90;;;3.10;99.90;;;;;;5039801;28;20216;-50
2020/12/14 18:20:22;;;;;;;1999.90;999.90;;;3.10;99.90;;;;;;5040722;28;20425;-56
2020/12/14 18:22:48;;;;;;;1999.90;999.90;;;3.10;99.90;;;;;;5040020;28;20429;-51
2020/12/14 18:25:14;;;;;;;1999.90;999.90;;;3.10;99.90;;;;;;5036580;28;20416;-50
2020/12/14 18:27:39;;;;;;;1999.90;999.90;;;3.00;99.90;;;;;;5037037;28;21159;-50
2020/12/14 18:30:05;;;;;;;1999.90;999.90;;;3.00;99.90;;;;;;5035137;28;20179;-49
2020/12/14 21:24:28;;;;;;;1999.90;999.90;;;2.60;99.90;;;;;;5036044;28;20414;-51
2020/12/14 21:26:54;;;;;;;1999.90;999.90;;;2.40;99.90;;;;;;5029863;28;20467;-51
2020/12/14 21:29:26;;;;;;;1999.90;999.90;;;2.30;99.90;;;;;;5027254;28;21018;-51
2020/12/14 21:31:53;;;;;;;1999.90;999.90;;;2.30;99.90;;;;;;5028099;28;20210;-51
2020/12/14 21:34:19;;;;;;;1999.90;999.90;;;2.40;99.90;;;;;;5029071;28;20813;-51
2020/12/14 21:36:44;;;;;;;1999.90;999.90;;;2.40;99.90;;;;;;5031293;28;20963;-51
2020/12/14 21:39:10;;;;;;;1999.90;999.90;;;2.30;99.90;;;;;;5032029;28;20587;-51
2020/12/14 21:41:35;;;;;;;1999.90;999.90;;;2.30;99.90;;;;;;5031372;28;20904;-52
2020/12/14 21:44:01;;;;;;;1999.90;999.90;;;2.30;99.90;;;;;;5030445;28;20463;-50
2020/12/14 21:46:27;;;;;;;1999.90;999.90;;;2.30;99.90;;;;;;5030459;28;20219;-51
2020/12/14 21:48:53;;;;;;;1999.90;999.90;;;2.30;99.90;;;;;;5021213;28;20190;-51
2020/12/14 21:51:19;;;;;;;1999.90;999.90;;;2.30;99.90;;;;;;5028256;28;20566;-51
2020/12/14 21:53:45;;;;;;;1999.90;999.90;;;2.30;99.90;;;;;;5031731;28;20194;-51
2020/12/14 21:56:14;;;;;;;1999.90;999.90;;;2.30;99.90;;;;;;5031679;28;20930;-51
2020/12/14 21:58:40;;;;;;;1999.90;999.90;;;2.30;99.90;;;;;;5030956;28;20219;-51
2020/12/14 22:01:06;;;;;;;1999.90;999.90;;;2.20;99.90;;;;;;5031221;28;20452;-51
2020/12/14 22:03:31;;;;;;;1999.90;999.90;;;2.30;99.90;;;;;;5028661;28;20190;-51
2020/12/14 22:05:59;;;;;;;1999.90;999.90;;;2.30;99.90;;;;;;5023361;28;20229;-52
2020/12/14 22:08:26;;;;;;;1999.90;999.90;;;2.30;99.90;;;;;;5030892;28;20216;-51
2020/12/14 22:10:51;;;;;;;1999.90;999.90;;;2.30;99.90;;;;;;5031094;28;20470;-51
2020/12/14 22:13:17;;;;;;;1999.90;999.90;;;2.40;99.90;;;;;;5032513;28;20428;-51
2020/12/14 22:15:42;;;;;;;1999.90;999.90;;;2.40;99.90;;;;;;5027802;28;20322;-51
2020/12/14 22:18:08;;;;;;;1999.90;999.90;;;2.50;99.90;;;;;;5030272;28;20211;-51
2020/12/14 22:20:34;;;;;;;1999.90;999.90;;;2.70;99.90;;;;;;5031256;28;20182;-51
2020/12/14 22:23:00;;;;;;;1999.90;999.90;;;2.70;99.90;;;;;;5031662;28;20273;-51
2020/12/14 22:25:26;;;;;;;1999.90;999.90;;;2.80;99.90;;;;;;5031534;28;20930;-51
2020/12/14 22:27:51;;;;;;;1999.90;999.90;;;2.80;99.90;;;;;;5027567;28;20460;-51
2020/12/14 22:30:17;;;;;;;1999.90;999.90;;;2.80;99.90;;;;;;5028729;28;20251;-51
2020/12/14 22:32:42;;;;;;;1999.90;999.90;;;2.70;99.90;;;;;;5031517;28;20778;-51
2020/12/14 22:35:08;;;;;;;1999.90;999.90;;;2.70;99.90;;;;;;5031812;28;20206;-51
2020/12/14 22:37:34;;;;;;;1999.90;999.90;;;2.60;99.90;;;;;;5032075;28;20214;-51
2020/12/14 22:39:59;;;;;;;1999.90;999.90;;;2.60;99.90;;;;;;5032905;28;20174;-51
2020/12/14 22:42:25;;;;;;;1999.90;999.90;;;2.60;99.90;;;;;;5029047;28;20190;-51
2020/12/14 22:44:50;;;;;;;1999.90;999.90;;;2.60;99.90;;;;;;5013397;28;20579;-51
2020/12/14 22:47:16;;;;;;;1999.90;999.90;;;2.60;99.90;;;;;;5015221;28;20212;-51
2020/12/14 22:49:42;;;;;;;1999.90;999.90;;;2.60;99.90;;;;;;5032702;28;20256;-51
2020/12/14 22:52:08;;;;;;;1999.90;999.90;;;2.60;99.90;;;;;;5030237;28;20190;-51
2020/12/14 22:54:33;;;;;;;1999.90;999.90;;;2.60;99.90;;;;;;5033121;28;20989;-51
2020/12/14 22:56:59;;;;;;;1999.90;999.90;;;2.60;99.90;;;;;;5028967;28;20507;-51
